Time;durP1;ratioP1;P1;durP2;ratioP2;P2;SDS_P1;SDS_P2;PMS_P1;PMS_P2;Temp;Humidity;BMP_temperature;BMP_pressure;BME280_temperature;BME280_humidity;BME280_pressure;Samples;Min_cycle;Max_cycle;Signal;HPM_P1;HPM_P2
2021/09/29 00:02:19;;;;;;;6.15;5.55;;;;;;;21.44;49.56;100412.34;4998372;28;20064;-70
2021/09/29 00:04:47;;;;;;;7.65;6.93;;;;;;;21.42;49.69;100403.50;5014037;28;20057;-72
2021/09/29 00:07:13;;;;;;;8.15;6.10;;;;;;;21.38;50.15;100399.13;4998159;28;20057;-70
2021/09/29 00:09:39;;;;;;;6.72;6.00;;;;;;;21.41;49.79;100393.41;4997876;28;20481;-73
2021/09/29 00:12:04;;;;;;;5.88;5.03;;;;;;;21.34;49.50;100390.69;4981820;28;20038;-72
2021/09/29 00:14:30;;;;;;;5.50;4.95;;;;;;;21.35;49.86;100386.63;4997885;28;20037;-72
2021/09/29 00:16:58;;;;;;;5.35;4.95;;;;;;;21.37;50.57;100384.19;4998101;28;20049;-73
2021/09/29 00:19:24;;;;;;;6.47;5.88;;;;;;;21.37;49.66;100384.19;4998039;28;20034;-72
2021/09/29 00:21:52;;;;;;;5.18;4.78;;;;;;;21.38;49.95;100384.97;4997968;28;20080;-72
2021/09/29 00:24:21;;;;;;;6.28;5.68;;;;;;;21.43;50.48;100388.13;4997594;28;20134;-72
2021/09/29 00:26:48;;;;;;;5.35;4.95;;;;;;;21.40;50.40;100383.31;4997509;28;20026;-73
2021/09/29 00:29:14;;;;;;;5.60;5.10;;;;;;;21.42;49.62;100386.53;4997331;28;20436;-71
2021/09/29 00:31:40;;;;;;;6.32;5.63;;;;;;;21.39;49.65;100387.38;4997686;28;20128;-73
2021/09/29 00:34:51;;;;;;;6.63;5.05;;;;;;;21.41;49.94;100387.75;4997989;28;20049;-72
2021/09/29 00:36:55;;;;;;;5.60;5.10;;;;;;;21.34;49.94;100387.88;4988200;28;20520;-73
2021/09/29 00:39:21;;;;;;;5.57;5.07;;;;;;;21.35;50.52;100391.50;4978441;28;20057;-72
2021/09/29 00:41:47;;;;;;;4.85;4.45;;;;;;;21.33;50.70;100389.09;4977866;28;20465;-72
2021/09/29 00:44:13;;;;;;;5.32;4.82;;;;;;;21.35;51.01;100389.47;4978361;28;20117;-72
2021/09/29 00:46:39;;;;;;;6.22;5.72;;;;;;;21.34;50.59;100379.38;4977983;28;20545;-72
2021/09/29 00:49:05;;;;;;;5.00;4.43;;;;;;;21.31;50.16;100379.47;4977742;28;20125;-71
2021/09/29 00:51:32;;;;;;;5.80;5.30;;;;;;;21.31;50.51;100377.44;4977970;28;20030;-73
2021/09/29 00:53:59;;;;;;;5.00;4.50;;;;;;;21.31;51.03;100383.09;4977695;28;20125;-73
2021/09/29 00:56:24;;;;;;;6.13;5.57;;;;;;;21.28;50.53;100378.25;4995142;28;20481;-71
2021/09/29 00:58:50;;;;;;;7.53;5.20;;;;;;;21.26;50.09;100383.56;4977634;28;20077;-72
2021/09/29 01:01:16;;;;;;;6.30;5.47;;;;;;;21.26;50.18;100377.88;4977501;28;20031;-73
2021/09/29 01:03:44;;;;;;;5.07;4.68;;;;;;;21.23;49.96;100378.75;4977502;28;20034;-71
2021/09/29 01:06:33;;;;;;;7.22;5.20;;;;;;;21.14;50.22;100372.84;4977342;28;20094;-71
2021/09/29 01:09:23;;;;;;;7.82;4.85;;;;;;;21.16;49.93;100367.56;4963453;28;20034;-72
2021/09/29 01:12:04;;;;;;;5.53;4.70;;;;;;;21.21;49.38;100369.09;4977168;28;20113;-72
2021/09/29 01:14:57;;;;;;;5.43;4.95;;;;;;;21.18;50.01;100365.88;4977033;28;20080;-72
2021/09/29 01:17:23;;;;;;;5.97;5.43;;;;;;;21.09;50.64;100365.66;4977263;28;20030;-71
2021/09/29 01:20:12;;;;;;;5.15;4.60;;;;;;;21.09;50.23;100362.00;4960922;28;20104;-72
2021/09/29 01:23:02;;;;;;;5.50;4.13;;;;;;;21.16;49.53;100368.34;4976705;28;20124;-71
2021/09/29 01:25:46;;;;;;;5.88;4.60;;;;;;;21.05;51.46;100362.09;4976489;28;20138;-73
2021/09/29 01:28:19;;;;;;;5.38;4.97;;;;;;;21.08;49.73;100355.56;4977088;28;20037;-71
2021/09/29 01:30:45;;;;;;;;;;;;;;;21.06;50.16;100360.06;4994840;28;20030;-72
2021/09/29 01:33:16;;;;;;;6.38;4.82;;;;;;;21.13;49.92;100345.78;4977177;28;19924;-71
2021/09/29 01:35:42;;;;;;;5.68;4.82;;;;;;;20.89;50.06;100325.19;4988061;28;20264;-72
2021/09/29 01:38:08;;;;;;;5.25;4.40;;;;;;;21.03;50.05;100353.22;4996307;28;20026;-72
2021/09/29 01:40:34;;;;;;;5.15;4.70;;;;;;;21.08;49.66;100351.94;4996656;28;20105;-72
2021/09/29 01:43:00;;;;;;;5.00;4.22;;;;;;;21.00;49.34;100356.13;4996125;28;20432;-72
2021/09/29 01:45:28;;;;;;;5.03;4.53;;;;;;;20.97;49.54;100352.09;4996243;28;20125;-72
2021/09/29 01:47:54;;;;;;;4.43;4.07;;;;;;;21.01;49.23;100346.41;4996269;28;20033;-72
2021/09/29 01:50:29;;;;;;;4.85;4.45;;;;;;;20.91;50.15;100346.16;4995994;28;20392;-72
2021/09/29 01:52:57;;;;;;;5.35;4.82;;;;;;;20.86;49.85;100335.31;4996348;28;20034;-72
2021/09/29 01:55:24;;;;;;;5.18;4.60;;;;;;;20.83;49.97;100344.69;4996967;28;20030;-72
2021/09/29 01:57:52;;;;;;;5.03;4.53;;;;;;;20.86;50.21;100348.66;4996122;28;20026;-73
2021/09/29 02:00:18;;;;;;;6.75;5.22;;;;;;;20.79;49.99;100346.75;4996149;28;20030;-72
2021/09/29 02:02:44;;;;;;;4.72;4.32;;;;;;;20.77;50.34;100343.53;4996446;28;20037;-72
2021/09/29 02:05:11;;;;;;;4.32;3.92;;;;;;;20.81;49.69;100340.66;4996266;28;20117;-71
2021/09/29 02:07:38;;;;;;;8.15;5.00;;;;;;;20.79;50.38;100338.28;5013707;28;20033;-72
2021/09/29 02:10:06;;;;;;;8.27;4.47;;;;;;;20.77;50.43;100343.53;4996535;28;20052;-71
2021/09/29 02:12:35;;;;;;;5.50;4.60;;;;;;;20.75;50.54;100343.19;5013647;28;20036;-72
2021/09/29 02:15:01;;;;;;;5.00;4.60;;;;;;;20.77;50.03;100343.53;4995903;28;20034;-72
2021/09/29 02:17:29;;;;;;;5.18;4.72;;;;;;;20.69;50.05;100339.25;4995821;28;20030;-72
2021/09/29 02:19:54;;;;;;;9.63;8.13;;;;;;;20.65;50.07;100344.16;4996249;28;20065;-71
2021/09/29 02:22:20;;;;;;;11.40;10.30;;;;;;;20.63;50.33;100333.28;4996179;28;20409;-72
2021/09/29 02:24:46;;;;;;;14.20;12.73;;;;;;;20.53;50.45;100317.28;4995911;28;20033;-72
2021/09/29 02:27:13;;;;;;;9.90;9.02;;;;;;;20.55;50.31;100337.44;4995728;28;20034;-72
2021/09/29 02:29:38;;;;;;;6.80;6.28;;;;;;;20.60;50.53;100336.16;4979935;28;20056;-72
2021/09/29 02:32:05;;;;;;;6.22;5.57;;;;;;;20.58;50.26;100341.44;4996717;28;20520;-72
2021/09/29 02:34:31;;;;;;;6.45;5.93;;;;;;;20.58;50.21;100333.75;4999046;28;20052;-72
2021/09/29 02:36:56;;;;;;;6.38;5.88;;;;;;;20.50;50.40;100331.47;5017094;28;20026;-72
2021/09/29 02:39:25;;;;;;;6.82;6.22;;;;;;;20.51;50.55;100336.72;4998812;28;20153;-72
2021/09/29 02:41:50;;;;;;;7.85;6.53;;;;;;;20.51;50.51;100333.88;4999414;28;20033;-72
2021/09/29 02:44:16;;;;;;;5.57;5.07;;;;;;;20.50;50.84;100331.47;5016748;28;20025;-72
2021/09/29 02:46:42;;;;;;;5.78;5.25;;;;;;;20.48;50.68;100333.94;4999461;28;20453;-72
2021/09/29 02:49:09;;;;;;;4.90;4.50;;;;;;;20.52;50.41;100337.50;4999718;28;20037;-72
2021/09/29 02:51:35;;;;;;;4.65;4.20;;;;;;;20.54;50.24;100337.88;4999270;28;20120;-72
2021/09/29 02:54:00;;;;;;;5.38;4.88;;;;;;;20.45;50.39;100329.09;4999266;28;20026;-72
2021/09/29 02:56:26;;;;;;;5.25;4.75;;;;;;;20.44;50.40;100333.94;4999255;28;20032;-72
2021/09/29 02:58:53;;;;;;;5.47;4.43;;;;;;;20.41;50.88;100335.63;4999727;28;20037;-73
2021/09/29 03:01:21;;;;;;;4.82;4.43;;;;;;;20.39;51.24;100331.59;4999494;28;20381;-72
2021/09/29 03:03:47;;;;;;;4.82;4.38;;;;;;;20.46;50.40;100339.19;4999429;28;20377;-72
2021/09/29 03:06:13;;;;;;;4.63;4.22;;;;;;;20.42;50.45;100342.84;4999235;28;20029;-72
2021/09/29 03:08:38;;;;;;;5.00;4.30;;;;;;;20.32;51.09;100338.16;4999561;28;20457;-72
2021/09/29 03:11:04;;;;;;;5.18;4.75;;;;;;;20.34;50.92;100330.03;4999805;28;20394;-72
2021/09/29 03:13:32;;;;;;;5.60;4.97;;;;;;;20.40;51.04;100334.03;4998842;28;20488;-73
2021/09/29 03:15:58;;;;;;;5.55;5.05;;;;;;;20.29;50.51;100327.69;4998665;28;20029;-71
2021/09/29 03:18:26;;;;;;;5.00;4.18;;;;;;;20.35;50.95;100334.50;4998730;28;20026;-71
2021/09/29 03:20:54;;;;;;;5.05;4.65;;;;;;;20.34;51.62;100335.69;4998811;28;20026;-70
2021/09/29 03:23:23;;;;;;;5.80;5.30;;;;;;;20.35;51.08;100337.31;4999290;28;20033;-70
2021/09/29 03:25:48;;;;;;;6.38;4.28;;;;;;;20.41;50.76;100340.47;4998571;28;20030;-72
2021/09/29 03:28:14;;;;;;;7.55;5.88;;;;;;;20.36;50.72;100336.09;4999169;28;20036;-72
2021/09/29 03:30:42;;;;;;;8.85;4.90;;;;;;;20.34;51.33;100332.88;4998628;28;20400;-72
2021/09/29 03:33:08;;;;;;;5.93;4.82;;;;;;;20.30;50.87;100329.31;5016239;28;20026;-72
2021/09/29 03:35:36;;;;;;;8.48;6.82;;;;;;;20.28;51.31;100330.97;4998038;28;20042;-72
2021/09/29 03:38:03;;;;;;;10.05;6.45;;;;;;;20.25;51.44;100337.47;4998906;28;20025;-71
2021/09/29 03:40:29;;;;;;;5.13;4.63;;;;;;;20.29;51.13;100327.69;4982661;28;20034;-71
2021/09/29 03:42:54;;;;;;;6.20;4.80;;;;;;;20.32;50.68;100326.06;4998051;28;20037;-73
2021/09/29 03:45:20;;;;;;;5.47;5.07;;;;;;;20.34;50.94;100332.88;4997143;28;20030;-71
2021/09/29 03:47:50;;;;;;;5.20;4.80;;;;;;;20.24;51.03;100330.19;4998284;28;20030;-71
2021/09/29 03:50:15;;;;;;;5.65;4.90;;;;;;;20.21;51.22;100337.50;4998260;28;20108;-72
2021/09/29 03:52:44;;;;;;;5.57;4.72;;;;;;;20.21;51.00;100343.16;4998808;28;20057;-72
2021/09/29 03:55:10;;;;;;;4.82;3.80;;;;;;;20.20;51.39;100338.75;4998200;28;20124;-72
2021/09/29 03:57:38;;;;;;;4.95;4.50;;;;;;;20.25;51.23;100337.47;4998709;28;20026;-72
2021/09/29 04:00:09;;;;;;;4.85;4.45;;;;;;;20.22;51.12;100332.66;4998644;28;20038;-72
2021/09/29 04:02:37;;;;;;;4.80;4.40;;;;;;;20.13;50.71;100319.06;4998590;28;20030;-72
2021/09/29 04:05:08;;;;;;;5.03;4.47;;;;;;;20.26;50.79;100336.25;4998036;28;20044;-72
2021/09/29 04:07:34;;;;;;;6.50;5.07;;;;;;;20.24;51.53;100338.69;5015598;28;20413;-72
2021/09/29 04:10:03;;;;;;;5.03;4.63;;;;;;;20.22;51.04;100341.13;4997837;28;20060;-72
2021/09/29 04:12:29;;;;;;;5.75;4.65;;;;;;;20.27;50.70;100341.47;4998233;28;20080;-72
2021/09/29 04:15:00;;;;;;;4.40;3.97;;;;;;;20.29;51.21;100341.81;4997683;28;20487;-72
2021/09/29 04:17:25;;;;;;;5.28;4.60;;;;;;;20.29;50.63;100347.47;4997557;28;20176;-72
2021/09/29 04:19:51;;;;;;;5.35;4.95;;;;;;;20.24;50.47;100339.50;4997617;28;20029;-72
2021/09/29 04:22:19;;;;;;;4.28;3.97;;;;;;;20.20;50.83;100335.94;5015191;28;20037;-72
2021/09/29 04:24:47;;;;;;;4.10;3.70;;;;;;;20.13;50.88;100334.00;4997129;28;20032;-71
2021/09/29 04:27:13;;;;;;;7.28;4.57;;;;;;;19.95;50.97;100308.00;4997590;28;20120;-72
2021/09/29 04:29:39;;;;;;;5.78;4.25;;;;;;;20.20;50.81;100341.56;4997593;28;20030;-72
2021/09/29 04:32:09;;;;;;;4.40;4.00;;;;;;;20.05;51.52;100329.66;4997735;28;20038;-72
2021/09/29 04:34:35;;;;;;;4.95;4.55;;;;;;;20.06;51.29;100333.28;5014822;28;20022;-72
2021/09/29 04:37:01;;;;;;;4.47;4.18;;;;;;;19.98;51.49;100329.78;4997870;28;20033;-72
2021/09/29 04:39:27;;;;;;;5.70;4.28;;;;;;;20.03;51.54;100326.47;4997357;28;20029;-70
2021/09/29 04:41:52;;;;;;;4.25;3.95;;;;;;;20.10;51.27;100336.88;4997487;28;20025;-71
2021/09/29 04:44:18;;;;;;;4.45;4.05;;;;;;;20.12;50.86;100326.72;4997446;28;20096;-71
2021/09/29 04:46:44;;;;;;;5.22;4.72;;;;;;;20.03;51.30;100325.69;4997145;28;20040;-72
2021/09/29 04:49:12;;;;;;;5.30;4.80;;;;;;;20.11;50.94;100324.34;4997189;28;20044;-72
2021/09/29 04:51:38;;;;;;;5.20;4.70;;;;;;;20.13;50.80;100333.19;4997385;28;20117;-72
2021/09/29 04:54:07;;;;;;;5.47;4.90;;;;;;;20.17;50.72;100345.22;4997505;28;20376;-72
2021/09/29 04:56:32;;;;;;;4.47;4.07;;;;;;;20.05;51.41;100334.50;5014110;28;20033;-71
2021/09/29 04:59:00;;;;;;;5.13;4.60;;;;;;;20.02;51.83;100336.16;4996857;28;20168;-71
2021/09/29 05:01:26;;;;;;;6.03;4.95;;;;;;;20.10;51.32;100342.53;5013412;28;20112;-71
2021/09/29 05:03:53;;;;;;;7.40;4.97;;;;;;;20.09;51.13;100346.56;4996725;28;20269;-71
2021/09/29 05:06:18;;;;;;;5.45;4.72;;;;;;;20.09;51.33;100343.75;4996958;28;20026;-72
2021/09/29 05:08:47;;;;;;;5.10;4.60;;;;;;;20.16;51.22;100352.13;4996650;28;20591;-71
2021/09/29 05:11:20;;;;;;;5.85;4.63;;;;;;;20.22;50.80;100358.88;4980684;28;20033;-72
2021/09/29 05:13:47;;;;;;;5.57;4.75;;;;;;;20.33;50.86;100350.25;5014144;28;20033;-72
2021/09/29 05:16:15;;;;;;;5.80;5.30;;;;;;;20.37;50.52;100357.47;4996565;28;20045;-72
2021/09/29 05:18:41;;;;;;;5.35;4.65;;;;;;;20.42;50.69;100359.81;4996215;28;20038;-70
2021/09/29 05:21:07;;;;;;;5.07;4.63;;;;;;;20.51;50.59;100356.50;4996707;28;20034;-70
2021/09/29 05:23:33;;;;;;;5.93;4.65;;;;;;;20.68;50.37;100360.28;4996286;28;20037;-72
2021/09/29 05:25:59;;;;;;;6.18;4.75;;;;;;;20.86;49.78;100372.09;4996350;28;20022;-72
2021/09/29 05:28:39;;;;;;;4.93;4.10;;;;;;;21.27;48.41;100368.16;4996850;28;20041;-72
2021/09/29 05:31:05;;;;;;;6.18;4.95;;;;;;;21.67;47.68;100371.88;4996718;28;20469;-72
2021/09/29 05:33:31;;;;;;;5.72;5.10;;;;;;;22.05;46.82;100365.88;4996163;28;20036;-73
2021/09/29 05:35:59;;;;;;;5.82;4.65;;;;;;;22.35;45.92;100379.00;4996087;28;20099;-73
2021/09/29 05:38:25;;;;;;;5.10;4.70;;;;;;;22.68;45.61;100379.84;4996407;28;20120;-73
2021/09/29 05:40:50;;;;;;;7.57;5.40;;;;;;;22.89;44.93;100378.56;4996109;28;20092;-72
2021/09/29 05:43:16;;;;;;;7.75;5.40;;;;;;;23.29;44.14;100378.38;4996338;28;20030;-70
2021/09/29 05:45:42;;;;;;;5.93;4.60;;;;;;;23.64;43.49;100381.53;4996151;28;20511;-71
2021/09/29 05:48:07;;;;;;;5.60;4.97;;;;;;;23.96;42.54;100375.72;4996131;28;20535;-72
2021/09/29 05:50:35;;;;;;;5.43;4.93;;;;;;;24.23;42.08;100383.84;4996057;28;20041;-70
2021/09/29 05:53:02;;;;;;;6.22;4.78;;;;;;;24.38;42.06;100384.25;4995806;28;20026;-72
2021/09/29 05:55:30;;;;;;;5.55;5.10;;;;;;;24.59;41.35;100387.69;4995763;28;20041;-72
2021/09/29 05:57:56;;;;;;;5.55;4.80;;;;;;;24.82;41.11;100390.19;4995873;28;20065;-72
2021/09/29 06:00:21;;;;;;;4.72;4.32;;;;;;;25.08;40.28;100396.69;4995690;28;20069;-70
2021/09/29 06:02:47;;;;;;;5.38;4.88;;;;;;;25.34;40.15;100397.44;4995957;28;20029;-72
2021/09/29 06:05:17;;;;;;;7.60;4.88;;;;;;;25.77;39.29;100407.34;4995607;28;20065;-71
2021/09/29 06:07:43;;;;;;;5.03;4.45;;;;;;;26.17;39.02;100406.72;5015156;28;20042;-72
2021/09/29 06:10:09;;;;;;;5.18;4.68;;;;;;;26.38;37.64;100400.19;4999704;28;20026;-71
2021/09/29 06:12:36;;;;;;;4.88;4.38;;;;;;;26.48;36.70;100399.00;4999547;28;20495;-70
2021/09/29 06:15:02;;;;;;;8.63;4.85;;;;;;;26.72;37.01;100396.41;4999346;28;20026;-71
2021/09/29 06:17:37;;;;;;;6.05;4.47;;;;;;;27.08;36.44;100404.34;4999413;28;20037;-71
2021/09/29 06:20:04;;;;;;;4.50;4.10;;;;;;;26.74;36.73;100410.19;4999679;28;20507;-71
2021/09/29 06:22:29;;;;;;;5.47;4.35;;;;;;;26.95;36.41;100420.75;4983537;28;20124;-72
2021/09/29 06:24:55;;;;;;;4.60;4.22;;;;;;;26.88;36.44;100406.78;4999424;28;20061;-72
2021/09/29 06:27:20;;;;;;;4.55;4.15;;;;;;;26.96;36.57;100416.66;4999668;28;20088;-72
2021/09/29 06:29:46;;;;;;;4.28;3.88;;;;;;;26.83;36.58;100413.88;4999141;28;20329;-71
2021/09/29 06:32:12;;;;;;;7.00;3.88;;;;;;;26.93;36.12;100417.56;4999370;28;20041;-71
2021/09/29 06:34:40;;;;;;;9.02;4.32;;;;;;;27.00;36.03;100420.13;4999041;28;20752;-70
2021/09/29 06:37:05;;;;;;;6.57;4.40;;;;;;;26.97;36.05;100428.84;4999787;28;20119;-72
2021/09/29 06:39:31;;;;;;;5.03;4.22;;;;;;;26.98;35.49;100436.94;4998982;28;20125;-71
2021/09/29 06:41:57;;;;;;;3.78;3.42;;;;;;;26.92;35.70;100444.53;4999587;28;20029;-71
2021/09/29 06:44:23;;;;;;;7.57;4.15;;;;;;;26.54;35.84;100439.91;4999075;28;20034;-72
2021/09/29 06:46:49;;;;;;;5.05;4.38;;;;;;;26.73;36.53;100454.28;4998883;28;20037;-72
2021/09/29 06:49:15;;;;;;;6.38;4.80;;;;;;;27.02;36.61;100440.47;4999195;28;20034;-72
2021/09/29 06:51:40;;;;;;;7.03;4.47;;;;;;;27.44;35.76;100442.81;4998866;28;20065;-72
2021/09/29 06:54:06;;;;;;;7.13;4.97;;;;;;;27.72;35.63;100443.69;4999267;28;20034;-72
2021/09/29 06:56:31;;;;;;;5.55;4.72;;;;;;;28.25;34.95;100440.47;4998894;28;20483;-72
2021/09/29 06:58:57;;;;;;;5.75;4.38;;;;;;;28.28;34.24;100450.16;4999213;28;20061;-71
2021/09/29 07:01:26;;;;;;;17.70;6.80;;;;;;;28.91;33.89;100451.28;4998711;28;20428;-73
2021/09/29 07:03:52;;;;;;;8.35;5.07;;;;;;;28.89;33.36;100453.84;4999374;28;20034;-73
2021/09/29 07:06:17;;;;;;;5.78;4.75;;;;;;;29.10;32.82;100458.56;4999143;28;20120;-72
2021/09/29 07:08:44;;;;;;;4.63;4.20;;;;;;;28.76;33.18;100461.84;4998979;28;20461;-71
2021/09/29 07:11:16;;;;;;;4.63;3.90;;;;;;;28.66;33.37;100456.16;4998656;28;20482;-71
2021/09/29 07:13:41;;;;;;;5.45;4.20;;;;;;;28.60;33.10;100463.78;4998791;28;20545;-73
2021/09/29 07:16:07;;;;;;;4.63;4.00;;;;;;;28.59;33.40;100458.56;4998788;28;20116;-73
2021/09/29 07:18:32;;;;;;;6.40;4.50;;;;;;;28.27;33.79;100448.56;4997833;28;20145;-70
2021/09/29 07:20:59;;;;;;;7.07;4.55;;;;;;;28.50;34.08;100450.81;4998175;28;20065;-72
2021/09/29 07:23:25;;;;;;;4.78;4.38;;;;;;;28.66;33.70;100453.31;4998916;28;20025;-72
2021/09/29 07:25:51;;;;;;;4.53;4.13;;;;;;;28.33;33.90;100453.19;4999066;28;20101;-71
2021/09/29 07:28:17;;;;;;;4.43;4.00;;;;;;;28.29;34.10;100451.78;4998757;28;20392;-71
2021/09/29 07:30:45;;;;;;;6.13;4.47;;;;;;;28.28;34.50;100450.16;4982017;28;20373;-71
2021/09/29 07:33:11;;;;;;;7.10;5.10;;;;;;;27.69;34.80;100448.25;4982775;28;20113;-71
2021/09/29 07:35:39;;;;;;;7.03;5.53;;;;;;;27.59;35.14;100446.66;4981845;28;20050;-72
2021/09/29 07:38:05;;;;;;;7.47;6.78;;;;;;;27.63;35.05;100443.63;4998511;28;20018;-72
2021/09/29 07:40:35;;;;;;;8.02;6.75;;;;;;;27.92;34.67;100438.28;4981910;28;20392;-72
2021/09/29 07:43:01;;;;;;;15.70;8.20;;;;;;;28.01;34.86;100457.50;4998036;28;20069;-72
2021/09/29 07:45:27;;;;;;;7.75;6.88;;;;;;;27.17;35.60;100460.69;4997672;28;20025;-71
2021/09/29 07:47:53;;;;;;;9.18;7.47;;;;;;;27.66;35.64;100460.63;4997641;28;20022;-71
2021/09/29 07:50:20;;;;;;;10.68;6.57;;;;;;;27.90;35.15;100468.63;4998223;28;20037;-71
2021/09/29 07:52:47;;;;;;;8.75;6.20;;;;;;;27.86;35.83;100465.94;4997607;28;20094;-71
2021/09/29 07:55:13;;;;;;;7.55;6.63;;;;;;;27.63;36.17;100473.00;4997445;28;20121;-72
2021/09/29 07:57:39;;;;;;;8.68;6.10;;;;;;;27.83;36.20;100472.59;4981429;28;20057;-72
2021/09/29 08:00:07;;;;;;;6.45;5.00;;;;;;;28.44;34.90;100475.59;4997423;28;20037;-71
2021/09/29 08:02:33;;;;;;;8.95;5.38;;;;;;;28.91;34.79;100459.88;4997628;28;20034;-73
2021/09/29 08:05:01;;;;;;;5.38;4.40;;;;;;;28.74;34.41;100470.13;4997377;28;20060;-71
2021/09/29 08:07:27;;;;;;;6.55;5.05;;;;;;;28.41;35.07;100465.13;4997698;28;20021;-72
2021/09/29 08:09:53;;;;;;;6.18;5.10;;;;;;;28.34;35.73;100471.19;4997934;28;20117;-71
2021/09/29 08:12:18;;;;;;;6.50;4.65;;;;;;;28.82;34.88;100469.31;4997136;28;20441;-70
2021/09/29 08:14:44;;;;;;;7.93;5.65;;;;;;;28.73;35.34;100471.41;4997161;28;20038;-71
2021/09/29 08:17:12;;;;;;;8.80;5.93;;;;;;;28.92;35.54;100475.78;4997501;28;20030;-71
2021/09/29 08:19:37;;;;;;;6.55;5.53;;;;;;;29.41;34.93;100468.91;4997797;28;20117;-70
2021/09/29 08:22:06;;;;;;;11.80;6.38;;;;;;;29.51;34.92;100470.44;4997457;28;20520;-72
2021/09/29 08:24:45;;;;;;;6.55;5.97;;;;;;;29.69;35.23;100473.22;5015537;28;20066;-72
2021/09/29 08:29:47;;;;;;;7.90;7.20;;;;;;;29.77;34.65;100470.75;5014902;28;20339;-72
2021/09/29 08:42:43;;;;;;;6.88;6.20;;;;;;;31.27;32.48;100480.63;5014621;28;20461;-71
2021/09/29 08:45:19;;;;;;;8.10;6.38;;;;;;;31.53;32.22;100485.66;4996308;28;20121;-70
2021/09/29 09:15:20;;;;;;;8.05;6.78;;;;;;;31.28;33.59;100482.19;5000040;28;20065;-72
2021/09/29 09:17:46;;;;;;;7.25;6.65;;;;;;;31.52;33.38;100484.09;4996427;28;20029;-71
2021/09/29 09:20:18;;;;;;;7.78;7.07;;;;;;;30.99;34.77;100477.25;4996424;28;20032;-71
2021/09/29 09:22:48;;;;;;;11.77;8.63;;;;;;;30.12;37.14;100478.81;4996988;28;20480;-72
2021/09/29 09:25:13;;;;;;;8.73;7.93;;;;;;;30.06;37.33;100480.75;4996510;28;20037;-72
2021/09/29 09:27:47;;;;;;;8.85;7.10;;;;;;;29.92;37.40;100482.28;4996213;28;20388;-72
2021/09/29 09:30:35;;;;;;;10.80;8.68;;;;;;;29.50;38.79;100480.31;4996845;28;20056;-72
2021/09/29 09:33:01;;;;;;;9.18;7.53;;;;;;;29.20;39.39;100480.16;4996194;28;20029;-72
2021/09/29 09:35:40;;;;;;;10.40;8.25;;;;;;;28.75;40.47;100474.56;5013456;28;20500;-72
2021/09/29 09:38:12;;;;;;;9.45;8.57;;;;;;;28.65;40.80;100471.72;4995979;28;20514;-72
2021/09/29 09:40:38;;;;;;;8.50;7.80;;;;;;;28.71;41.13;100474.75;4996196;28;20457;-72
2021/09/29 09:43:04;;;;;;;11.70;9.25;;;;;;;28.61;41.62;100458.88;4995282;28;20037;-72
2021/09/29 09:45:46;;;;;;;9.02;8.13;;;;;;;28.51;41.62;100463.03;4979534;28;20492;-72
2021/09/29 09:48:21;;;;;;;9.82;8.80;;;;;;;27.90;43.23;100454.31;5013811;28;20114;-71
2021/09/29 09:50:47;;;;;;;9.60;8.70;;;;;;;28.05;42.47;100461.00;5013542;28;20053;-72
2021/09/29 09:53:14;;;;;;;9.98;8.90;;;;;;;28.15;47.32;100458.94;4995907;28;20064;-72
2021/09/29 09:55:39;;;;;;;9.48;8.63;;;;;;;28.74;46.42;100452.94;4995523;28;20036;-72
2021/09/29 09:58:05;;;;;;;9.38;8.20;;;;;;;28.56;47.06;100454.59;4995654;28;20120;-72
2021/09/29 10:00:34;;;;;;;9.40;8.52;;;;;;;27.97;48.69;100451.16;4995692;28;20064;-72
2021/09/29 10:03:01;;;;;;;9.40;8.68;;;;;;;28.15;48.34;100453.22;5013486;28;20060;-71
2021/09/29 10:05:28;;;;;;;10.38;9.18;;;;;;;28.20;48.26;100450.50;4995723;28;20383;-73
2021/09/29 10:07:55;;;;;;;12.27;9.63;;;;;;;27.90;49.03;100460.81;5013508;28;20385;-73
2021/09/29 10:27:16;;;;;;;9.18;8.45;;;;;;;29.11;46.21;100465.88;5013236;28;20091;-72
2021/09/29 10:29:47;;;;;;;10.30;9.05;;;;;;;29.56;44.79;100461.19;5013489;28;20345;-73
2021/09/29 10:32:16;;;;;;;9.63;8.60;;;;;;;29.42;45.17;100473.38;5013303;28;20030;-72
2021/09/29 10:34:57;;;;;;;9.85;8.95;;;;;;;29.08;45.71;100458.25;4995534;28;20054;-72
2021/09/29 11:29:20;;;;;;;9.85;8.38;;;;;;;29.88;43.08;100404.22;5016215;28;20100;-73
2021/09/29 11:31:55;;;;;;;9.38;8.48;;;;;;;29.82;42.48;100406.97;4998411;28;20026;-72
2021/09/29 11:34:28;;;;;;;9.10;8.30;;;;;;;30.11;42.58;100400.50;4998107;28;20030;-72
2021/09/29 12:09:53;;;;;;;8.82;7.65;;;;;;;30.46;42.16;100360.44;5112075;28;20085;-74
2021/09/29 12:12:31;;;;;;;8.88;8.07;;;;;;;30.08;42.89;100361.31;5110116;28;20032;-73
2021/09/29 12:14:59;;;;;;;10.55;8.75;;;;;;;29.53;44.64;100356.09;5110057;28;20028;-74
2021/09/29 12:17:29;;;;;;;9.55;8.50;;;;;;;29.73;44.31;100364.88;5094125;28;20047;-73
2021/09/29 12:20:00;;;;;;;9.15;8.20;;;;;;;28.69;46.27;100348.47;5110193;28;20082;-73
2021/09/29 12:22:50;;;;;;;9.55;8.70;;;;;;;29.09;45.38;100353.84;5109739;28;20024;-72
2021/09/29 12:25:34;;;;;;;13.07;8.90;;;;;;;29.35;44.58;100348.44;5107599;28;20461;-73
2021/09/29 12:30:48;;;;;;;8.85;8.02;;;;;;;29.78;44.08;100357.66;5109896;28;20172;-72
2021/09/29 12:33:43;;;;;;;9.27;8.32;;;;;;;30.35;42.44;100353.72;5109687;28;20089;-72
2021/09/29 12:36:14;;;;;;;9.48;8.57;;;;;;;30.35;43.02;100345.91;5110863;28;20032;-73
2021/09/29 12:38:51;;;;;;;9.65;8.85;;;;;;;30.34;42.91;100346.41;5110019;28;20030;-73
2021/09/29 12:41:19;;;;;;;11.93;9.00;;;;;;;29.90;43.63;100347.19;5109778;28;20144;-72
2021/09/29 12:44:13;;;;;;;9.35;8.35;;;;;;;29.45;43.83;100357.72;5109510;28;20461;-72
2021/09/29 12:46:44;;;;;;;;;;;;;;;29.48;43.55;100356.75;5109812;28;20055;-73
2021/09/29 12:49:18;;;;;;;8.55;7.72;;;;;;;29.27;44.12;100349.28;5109753;28;19907;-72
2021/09/29 12:51:59;;;;;;;9.23;8.43;;;;;;;29.63;43.64;100351.09;5109399;28;20028;-72
2021/09/29 12:54:25;;;;;;;8.35;7.65;;;;;;;29.43;43.97;100349.63;5109169;28;20081;-72
2021/09/29 12:56:54;;;;;;;9.60;8.60;;;;;;;29.99;42.96;100353.63;5109291;28;20032;-73
2021/09/29 12:59:22;;;;;;;9.02;8.10;;;;;;;29.84;42.76;100347.06;5109256;28;20048;-74
2021/09/29 13:01:47;;;;;;;9.10;8.30;;;;;;;29.47;43.91;100360.91;5109085;28;20073;-73
2021/09/29 13:04:22;;;;;;;9.10;8.07;;;;;;;29.95;42.72;100349.38;5108376;28;20059;-72
2021/09/29 13:06:48;;;;;;;13.52;8.23;;;;;;;30.27;41.66;100342.66;5109481;28;20032;-72
2021/09/29 13:09:16;;;;;;;9.95;9.15;;;;;;;30.47;41.06;100349.78;5109327;28;20500;-72
2021/09/29 13:11:42;;;;;;;8.90;7.97;;;;;;;30.37;41.52;100356.91;5108403;28;20085;-73
2021/09/29 13:14:07;;;;;;;9.10;8.23;;;;;;;29.81;42.21;100339.44;5103347;28;20032;-72
2021/09/29 13:16:35;;;;;;;8.73;7.90;;;;;;;30.43;41.20;100344.22;5095257;28;20038;-72
2021/09/29 13:19:10;;;;;;;11.23;8.40;;;;;;;30.81;40.16;100338.84;5095186;28;20074;-73
2021/09/29 13:21:55;;;;;;;9.80;8.80;;;;;;;30.81;39.59;100351.09;5095853;28;20055;-73
2021/09/29 13:24:33;;;;;;;11.63;8.35;;;;;;;30.34;40.64;100340.66;5094514;28;20028;-72
2021/09/29 13:37:27;;;;;;;9.85;7.93;;;;;;;29.06;42.68;100337.63;5096845;28;20086;-73
2021/09/29 13:39:55;;;;;;;9.23;8.27;;;;;;;28.81;44.54;100338.06;5094741;28;20028;-71
2021/09/29 13:42:23;;;;;;;10.15;8.30;;;;;;;28.90;44.50;100338.03;5095167;28;20373;-73
2021/09/29 13:44:57;;;;;;;8.50;7.80;;;;;;;29.25;44.18;100338.31;5094904;28;20028;-73
2021/09/29 13:47:27;;;;;;;8.52;7.72;;;;;;;29.37;42.69;100316.41;5094519;28;20061;-73
2021/09/29 13:49:58;;;;;;;9.07;8.18;;;;;;;29.09;43.38;100330.94;5094568;28;20024;-73
2021/09/29 13:52:27;;;;;;;9.07;8.18;;;;;;;29.35;42.13;100333.28;5094281;28;20020;-74
2021/09/29 13:54:56;;;;;;;9.57;7.63;;;;;;;29.40;42.70;100335.47;5094460;28;20032;-73
2021/09/29 13:57:42;;;;;;;8.65;7.75;;;;;;;29.40;42.52;100333.44;5095724;28;20028;-73
2021/09/29 14:02:52;;;;;;;8.90;7.80;;;;;;;29.39;43.80;100319.56;5095133;28;20032;-73
2021/09/29 14:30:29;;;;;;;13.13;9.18;;;;;;;28.63;47.32;100333.25;5095503;28;20062;-73
2021/09/29 14:33:27;;;;;;;9.38;8.68;;;;;;;28.38;48.44;100345.91;5093971;28;20391;-74
2021/09/29 14:35:56;;;;;;;9.82;8.85;;;;;;;28.42;48.27;100346.53;5094741;28;20024;-74